Time;durP1;ratioP1;P1;durP2;ratioP2;P2;SDS_P1;SDS_P2;PMS_P1;PMS_P2;Temp;Humidity;BMP_temperature;BMP_pressure;BME280_temperature;BME280_humidity;BME280_pressure;Samples;Min_cycle;Max_cycle;Signal;HPM_P1;HPM_P2
2022/05/03 00:02:24;;;;;;;16.38;8.75;;;;;;;7.39;100.00;95295.69;5070758;28;20052;-77
2022/05/03 00:05:01;;;;;;;18.40;9.27;;;;;;;7.29;100.00;95279.94;5052819;28;20438;-77
2022/05/03 00:07:35;;;;;;;18.48;9.35;;;;;;;7.17;100.00;95280.13;5062573;28;20060;-77
2022/05/03 00:10:01;;;;;;;17.90;9.02;;;;;;;7.15;100.00;95289.28;5067592;28;20494;-77
2022/05/03 00:12:39;;;;;;;15.80;9.00;;;;;;;7.11;100.00;95288.97;5058604;28;20091;-77
2022/05/03 00:15:06;;;;;;;20.02;9.25;;;;;;;7.09;100.00;95281.38;5057346;28;20041;-77
2022/05/03 00:17:33;;;;;;;16.25;8.98;;;;;;;7.10;100.00;95282.97;5050421;28;20128;-77
2022/05/03 00:20:00;;;;;;;15.60;8.80;;;;;;;7.02;100.00;95280.81;5069468;28;20410;-77
2022/05/03 00:22:27;;;;;;;15.70;9.35;;;;;;;6.96;100.00;95276.59;5058138;28;20046;-77
2022/05/03 00:24:56;;;;;;;14.25;7.97;;;;;;;6.94;100.00;95273.44;5052651;28;20048;-77
2022/05/03 00:27:26;;;;;;;16.20;8.38;;;;;;;6.90;100.00;95272.38;5056390;28;20044;-75
2022/05/03 00:29:52;;;;;;;20.17;9.00;;;;;;;6.79;100.00;95281.97;5057936;28;20055;-75
2022/05/03 00:32:20;;;;;;;15.45;8.77;;;;;;;6.72;100.00;95271.72;5068308;28;20045;-78
2022/05/03 00:34:47;;;;;;;15.07;8.63;;;;;;;6.67;100.00;95269.06;5051817;28;20040;-77
2022/05/03 00:37:13;;;;;;;16.38;9.05;;;;;;;6.74;100.00;95269.63;5068678;28;20047;-76
2022/05/03 00:39:38;;;;;;;15.35;8.63;;;;;;;6.69;100.00;95272.19;5080571;28;20041;-76
2022/05/03 00:42:18;;;;;;;17.02;8.55;;;;;;;6.67;100.00;95269.06;5052589;28;20403;-76
2022/05/03 00:44:55;;;;;;;18.45;9.52;;;;;;;6.72;100.00;95271.72;5050125;28;20041;-76
2022/05/03 00:47:31;;;;;;;14.23;8.05;;;;;;;6.68;100.00;95275.06;5055882;28;20040;-77
2022/05/03 00:50:05;;;;;;;17.73;8.82;;;;;;;6.63;100.00;95267.19;5066126;28;20048;-77
2022/05/03 00:52:40;;;;;;;17.38;9.55;;;;;;;6.58;100.00;95260.13;5056043;28;20054;-76
2022/05/03 00:55:18;;;;;;;16.25;8.60;;;;;;;6.66;100.00;95262.25;5066736;28;20513;-77
2022/05/03 00:57:54;;;;;;;14.10;7.88;;;;;;;6.65;100.00;95265.91;5061596;28;20049;-77
2022/05/03 01:00:22;;;;;;;13.85;8.45;;;;;;;6.56;100.00;95256.94;5050152;28;20056;-77
2022/05/03 01:03:05;;;;;;;16.52;8.48;;;;;;;6.51;100.00;95264.75;5061969;28;20079;-77
2022/05/03 01:06:33;;;;;;;13.77;7.70;;;;;;;6.37;100.00;95254.69;5058652;28;20044;-76
2022/05/03 01:09:09;;;;;;;16.67;7.88;;;;;;;6.40;100.00;95262.03;5034448;28;20064;-77
2022/05/03 01:12:06;;;;;;;13.93;8.02;;;;;;;6.41;100.00;95261.00;5039938;28;20095;-76
2022/05/03 01:14:51;;;;;;;13.93;7.95;;;;;;;6.31;100.00;95255.69;5044576;28;20065;-76
2022/05/03 01:17:25;;;;;;;14.43;8.13;;;;;;;6.37;100.00;95254.69;5049254;28;20045;-77
2022/05/03 01:19:56;;;;;;;13.25;7.90;;;;;;;6.47;100.00;95248.00;5048011;28;20085;-77
2022/05/03 01:22:49;;;;;;;16.92;7.78;;;;;;;6.42;100.00;95253.94;5061539;28;20083;-77
2022/05/03 01:25:18;;;;;;;15.00;7.43;;;;;;;6.37;100.00;95254.69;5049179;28;20041;-76
2022/05/03 01:27:49;;;;;;;15.20;7.40;;;;;;;6.26;100.00;95255.63;5049756;28;20052;-76
2022/05/03 01:30:16;;;;;;;15.77;8.23;;;;;;;6.21;100.00;95258.22;5074988;28;20616;-77
2022/05/03 01:32:45;;;;;;;13.43;7.85;;;;;;;6.09;100.00;95257.56;5067690;28;20075;-76
2022/05/03 01:35:14;;;;;;;13.57;7.90;;;;;;;5.96;100.00;95249.09;5068833;28;20448;-77
2022/05/03 01:38:06;;;;;;;14.77;8.45;;;;;;;5.90;100.00;95260.50;5052157;28;20037;-76
2022/05/03 01:41:07;;;;;;;14.63;7.72;;;;;;;5.88;100.00;95252.13;5059180;28;20399;-76
2022/05/03 01:44:08;;;;;;;15.77;7.93;;;;;;;5.86;100.00;95254.19;5067702;28;20068;-76
2022/05/03 01:46:38;;;;;;;14.63;7.40;;;;;;;5.85;100.00;95257.84;5061954;28;20044;-76
2022/05/03 01:52:41;;;;;;;12.15;6.82;;;;;;;5.75;100.00;95255.09;5065664;28;20049;-76
2022/05/03 01:55:17;;;;;;;14.48;7.07;;;;;;;5.68;100.00;95258.69;5064187;28;20041;-76
2022/05/03 01:58:04;;;;;;;15.65;8.27;;;;;;;5.77;100.00;95258.28;5061625;28;20052;-77
2022/05/03 02:00:35;;;;;;;13.45;7.30;;;;;;;5.76;100.00;95257.50;5053899;28;20040;-76
2022/05/03 02:03:28;;;;;;;14.25;7.78;;;;;;;5.78;100.00;95252.03;5055664;28;20112;-76
2022/05/03 02:06:02;;;;;;;14.52;7.40;;;;;;;5.64;100.00;95252.38;5048739;28;20169;-77
2022/05/03 02:08:49;;;;;;;12.35;7.07;;;;;;;5.70;100.00;95251.41;5059861;28;20095;-77
2022/05/03 02:11:33;;;;;;;12.55;7.28;;;;;;;5.56;100.00;95255.44;5055224;28;20486;-76
2022/05/03 02:17:02;;;;;;;15.50;7.35;;;;;;;5.48;100.00;95253.25;5051126;28;20042;-76
2022/05/03 02:19:56;;;;;;;12.27;7.35;;;;;;;5.40;100.00;95245.84;5047539;28;20391;-76
2022/05/03 02:22:31;;;;;;;13.65;6.72;;;;;;;5.35;100.00;95254.41;5048561;28;20047;-76
2022/05/03 02:25:09;;;;;;;13.77;6.93;;;;;;;5.31;100.00;95254.06;5056948;28;20051;-77
2022/05/03 02:27:38;;;;;;;13.90;6.82;;;;;;;5.26;100.00;95251.41;5048832;28;20125;-77
2022/05/03 02:30:05;;;;;;;14.57;7.15;;;;;;;5.21;100.00;95248.72;5048537;28;20045;-77
2022/05/03 02:32:37;;;;;;;16.75;7.68;;;;;;;5.17;100.00;95250.25;5058039;28;20044;-77
2022/05/03 02:35:05;;;;;;;12.75;6.80;;;;;;;5.17;100.00;95258.06;5067583;28;20036;-77
2022/05/03 02:37:38;;;;;;;11.63;6.72;;;;;;;5.27;100.00;95252.19;5056028;28;20053;-76
2022/05/03 02:40:13;;;;;;;12.82;7.20;;;;;;;5.19;100.00;95248.19;5051987;28;20053;-77
2022/05/03 02:42:39;;;;;;;13.73;7.03;;;;;;;5.06;100.00;95264.16;5065526;28;20067;-77
2022/05/03 02:45:06;;;;;;;13.07;7.35;;;;;;;4.80;100.00;95259.41;5051874;28;20487;-77
2022/05/03 02:47:50;;;;;;;13.30;7.35;;;;;;;4.74;100.00;95254.34;5065341;28;20048;-77
2022/05/03 02:50:26;;;;;;;12.95;7.15;;;;;;;4.82;100.00;95261.75;5071533;28;20040;-77
2022/05/03 02:52:51;;;;;;;12.85;7.50;;;;;;;4.93;100.00;95258.28;5062417;28;20065;-76
2022/05/03 02:55:36;;;;;;;14.65;7.57;;;;;;;4.97;100.00;95254.16;5067389;28;20036;-77
2022/05/03 02:58:12;;;;;;;12.68;6.90;;;;;;;5.05;100.00;95260.00;5059250;28;20055;-77
2022/05/03 03:03:43;;;;;;;;;;;;;;;5.03;100.00;95262.84;5059823;28;20041;-77
2022/05/03 03:06:22;;;;;;;12.07;6.30;;;;;;;4.97;100.00;95264.59;5066858;28;20303;-77
2022/05/03 03:08:54;;;;;;;10.68;6.18;;;;;;;4.97;100.00;95259.38;5051931;28;20036;-78
2022/05/03 03:11:58;;;;;;;12.50;6.55;;;;;;;4.92;100.00;95261.91;5050684;28;20041;-77
2022/05/03 03:14:45;;;;;;;12.23;6.28;;;;;;;4.82;100.00;95261.75;5068741;28;20498;-77
2022/05/03 03:17:16;;;;;;;22.83;7.03;;;;;;;4.80;100.00;95256.78;5061773;28;20045;-77
2022/05/03 03:20:04;;;;;;;14.13;7.45;;;;;;;4.76;100.00;95262.72;5071075;28;20486;-77
2022/05/03 03:22:35;;;;;;;14.10;7.38;;;;;;;4.70;100.00;95259.25;5067693;28;20047;-77
2022/05/03 03:25:02;;;;;;;11.25;6.68;;;;;;;4.64;100.00;95261.00;5067580;28;20506;-77
2022/05/03 03:27:31;;;;;;;12.05;6.97;;;;;;;4.63;100.00;95262.00;5056721;28;20486;-77
2022/05/03 03:29:58;;;;;;;12.82;7.15;;;;;;;4.55;100.00;95266.81;5070036;28;20399;-77
2022/05/03 03:32:25;;;;;;;14.27;7.45;;;;;;;4.49;100.00;95265.97;5060574;28;20051;-77
2022/05/03 03:34:57;;;;;;;12.77;6.82;;;;;;;4.57;100.00;95268.19;5069014;28;20044;-77
2022/05/03 03:37:27;;;;;;;13.73;6.75;;;;;;;4.53;100.00;95269.66;5064285;28;20056;-77
2022/05/03 03:39:53;;;;;;;13.55;7.32;;;;;;;4.55;100.00;95267.59;5066341;28;20033;-77
2022/05/03 03:42:18;;;;;;;13.77;6.90;;;;;;;4.50;100.00;95264.94;5081516;28;20105;-77
2022/05/03 03:44:46;;;;;;;13.65;7.28;;;;;;;4.61;100.00;95273.69;5063853;28;20505;-77
2022/05/03 03:47:13;;;;;;;11.80;6.60;;;;;;;4.61;100.00;95277.09;5051353;28;20040;-77
2022/05/03 03:49:38;;;;;;;12.20;6.50;;;;;;;4.59;100.00;95279.13;5068188;28;20056;-77
2022/05/03 03:52:06;;;;;;;14.07;7.13;;;;;;;4.73;100.00;95269.19;5056257;28;20037;-77
2022/05/03 03:54:33;;;;;;;13.90;6.85;;;;;;;4.68;100.00;95272.53;5049442;28;20518;-77
2022/05/03 03:56:59;;;;;;;19.48;7.50;;;;;;;4.60;100.00;95277.34;5058987;28;20063;-76
2022/05/03 03:59:30;;;;;;;14.13;6.63;;;;;;;4.60;100.00;95274.75;5084855;28;20043;-77
2022/05/03 04:02:00;;;;;;;13.95;6.95;;;;;;;4.51;100.00;95279.53;5070210;28;20048;-77
2022/05/03 04:04:30;;;;;;;15.02;7.35;;;;;;;4.46;100.00;95284.66;5058613;28;20064;-77
2022/05/03 04:06:56;;;;;;;13.75;7.00;;;;;;;4.42;100.00;95278.34;5069448;28;20048;-76
2022/05/03 04:09:22;;;;;;;12.95;6.32;;;;;;;4.46;100.00;95279.47;5079101;28;20037;-77
2022/05/03 04:11:48;;;;;;;14.20;7.20;;;;;;;4.56;100.00;95284.84;5062781;28;20037;-76
2022/05/03 04:14:14;;;;;;;17.35;6.95;;;;;;;4.51;100.00;95284.72;5069624;28;20070;-76
2022/05/03 04:16:41;;;;;;;12.20;6.40;;;;;;;4.45;100.00;95283.09;5056827;28;20115;-77
2022/05/03 04:19:08;;;;;;;17.00;6.97;;;;;;;4.43;100.00;95285.94;5068495;28;20045;-77
2022/05/03 04:21:34;;;;;;;15.30;6.68;;;;;;;4.53;100.00;95285.31;5069596;28;20094;-76
2022/05/03 04:24:00;;;;;;;14.52;6.55;;;;;;;4.50;100.00;95277.97;5063347;28;20410;-76
2022/05/03 04:26:26;;;;;;;16.05;7.78;;;;;;;4.57;100.00;95281.22;5063492;28;20040;-77
2022/05/03 04:28:59;;;;;;;13.73;7.60;;;;;;;4.53;100.00;95285.31;5050519;28;20068;-77
2022/05/03 04:31:29;;;;;;;17.42;6.25;;;;;;;4.56;100.00;95284.84;5050495;28;20052;-77
2022/05/03 04:33:56;;;;;;;14.85;6.65;;;;;;;4.59;100.00;95284.34;5052902;28;20040;-77
2022/05/03 04:36:22;;;;;;;14.30;6.72;;;;;;;4.61;100.00;95282.31;5056061;28;20460;-76
2022/05/03 04:38:48;;;;;;;13.30;7.05;;;;;;;4.79;100.00;95283.09;5063819;28;20033;-76
2022/05/03 04:41:14;;;;;;;12.35;6.85;;;;;;;4.83;100.00;95281.59;5063376;28;20044;-76
2022/05/03 04:43:40;;;;;;;14.50;6.80;;;;;;;4.89;100.00;95288.47;5066624;28;20063;-76
2022/05/03 04:46:05;;;;;;;13.27;7.10;;;;;;;4.85;100.00;95277.69;5060827;28;20490;-77
2022/05/03 04:48:31;;;;;;;16.58;6.47;;;;;;;4.91;100.00;95283.78;5051886;28;20103;-77
2022/05/03 04:50:56;;;;;;;12.48;6.72;;;;;;;4.97;100.00;95290.69;5070449;28;20049;-76
2022/05/03 04:53:22;;;;;;;12.05;6.72;;;;;;;4.98;100.00;95281.81;5073504;28;20413;-77
2022/05/03 04:55:49;;;;;;;17.30;6.90;;;;;;;5.05;100.00;95280.88;5052528;28;20098;-75
2022/05/03 04:58:14;;;;;;;18.27;7.63;;;;;;;5.10;100.00;95288.75;5058431;28;20049;-75
2022/05/03 05:00:40;;;;;;;17.08;6.82;;;;;;;5.14;100.00;95295.06;5071505;28;20063;-76
2022/05/03 05:03:06;;;;;;;12.73;6.90;;;;;;;5.19;100.00;95292.53;5069160;28;20743;-76
2022/05/03 05:05:31;;;;;;;13.90;6.97;;;;;;;5.28;100.00;95285.88;5061776;28;20138;-76
2022/05/03 05:08:05;;;;;;;14.73;7.43;;;;;;;5.42;100.00;95290.75;5082070;28;20041;-77
2022/05/03 05:10:32;;;;;;;13.20;6.68;;;;;;;5.52;100.00;95296.09;5056874;28;20045;-76
2022/05/03 05:13:01;;;;;;;15.25;6.28;;;;;;;5.68;100.00;95292.63;5052663;28;20091;-77
2022/05/03 05:15:28;;;;;;;14.43;7.13;;;;;;;5.86;100.00;95301.19;5050765;28;20045;-76
2022/05/03 05:17:56;;;;;;;12.60;6.40;;;;;;;5.85;100.00;95299.63;5059268;28;20398;-77
2022/05/03 05:20:22;;;;;;;11.43;6.47;;;;;;;5.91;100.00;95293.41;5068113;28;20048;-76
2022/05/03 05:22:47;;;;;;;16.27;7.20;;;;;;;5.97;100.00;95289.84;5068228;28;20555;-76
2022/05/03 05:25:13;;;;;;;13.30;7.40;;;;;;;6.04;100.00;95292.28;5059045;28;20048;-76
2022/05/03 05:27:40;;;;;;;12.02;7.10;;;;;;;6.05;100.00;95299.88;5049556;28;20033;-75
2022/05/03 05:30:07;;;;;;;17.55;7.00;;;;;;;6.16;100.00;95295.56;5052378;28;20076;-75
2022/05/03 05:32:33;;;;;;;14.52;7.00;;;;;;;6.19;100.00;95294.25;5062272;28;20565;-75
2022/05/03 05:34:59;;;;;;;13.77;6.85;;;;;;;6.22;100.00;95298.97;5058328;28;20048;-75
2022/05/03 05:37:24;;;;;;;12.05;6.88;;;;;;;6.31;100.00;95297.50;5053073;28;20045;-76
2022/05/03 05:39:50;;;;;;;13.68;6.60;;;;;;;6.43;100.00;95291.34;5068023;28;20577;-75
2022/05/03 05:42:15;;;;;;;13.10;6.57;;;;;;;6.54;100.00;95295.63;5065694;28;20048;-77
2022/05/03 05:44:41;;;;;;;12.02;6.15;;;;;;;6.57;100.00;95295.13;5062411;28;20474;-75
2022/05/03 05:47:06;;;;;;;13.07;6.35;;;;;;;6.67;100.00;95300.44;5073882;28;20052;-75
2022/05/03 05:49:32;;;;;;;11.68;6.25;;;;;;;6.72;100.00;95292.66;5080347;28;20033;-76
2022/05/03 05:53:31;;;;;;;12.25;6.43;;;;;;;6.90;100.00;95295.91;5062644;28;20048;-76
2022/05/03 05:54:44;;;;;;;11.27;6.22;;;;;;;7.19;100.00;95295.56;5067362;28;20094;-76
2022/05/03 05:57:10;;;;;;;13.02;6.18;;;;;;;7.43;100.00;95296.75;5065874;28;20051;-77
2022/05/03 05:59:35;;;;;;;10.45;6.00;;;;;;;7.55;100.00;95303.63;5060912;28;20041;-76
2022/05/03 06:02:01;;;;;;;10.82;5.60;;;;;;;7.59;100.00;95304.69;5067872;28;20052;-75
2022/05/03 06:04:29;;;;;;;10.80;6.07;;;;;;;7.69;100.00;95312.59;5067716;28;20418;-76
2022/05/03 06:06:56;;;;;;;9.68;5.82;;;;;;;7.84;100.00;95311.06;5066526;28;20052;-75
2022/05/03 06:09:22;;;;;;;10.32;6.70;;;;;;;7.98;100.00;95312.19;5064814;28;20052;-75
2022/05/03 06:11:47;;;;;;;9.55;5.38;;;;;;;8.18;100.00;95310.66;5068381;28;20033;-75
2022/05/03 06:14:13;;;;;;;11.25;5.50;;;;;;;8.37;100.00;95316.22;5072472;28;20068;-75
2022/05/03 06:16:48;;;;;;;10.73;5.80;;;;;;;8.49;100.00;95316.78;5067376;28;20402;-76
2022/05/03 06:19:14;;;;;;;10.50;5.82;;;;;;;8.52;100.00;95307.59;5066959;28;20044;-74
2022/05/03 06:21:39;;;;;;;13.00;5.90;;;;;;;8.81;100.00;95308.66;5067430;28;20037;-74
2022/05/03 06:24:06;;;;;;;11.50;5.85;;;;;;;8.91;100.00;95307.13;5063294;28;20411;-75
2022/05/03 06:26:32;;;;;;;9.75;5.85;;;;;;;8.93;100.00;95310.25;5063007;28;20118;-74
2022/05/03 06:28:58;;;;;;;13.25;5.70;;;;;;;9.10;100.00;95309.97;5051643;28;20041;-75
2022/05/03 06:31:24;;;;;;;10.57;6.72;;;;;;;9.56;100.00;95307.25;5052704;28;20115;-75
2022/05/03 06:33:50;;;;;;;11.18;6.15;;;;;;;9.53;100.00;95300.69;5067134;28;20090;-76
2022/05/03 06:36:17;;;;;;;11.32;6.07;;;;;;;9.52;100.00;95307.03;5052483;28;20044;-74
2022/05/03 06:38:43;;;;;;;9.30;5.72;;;;;;;9.87;99.52;95313.19;5065624;28;20123;-75
2022/05/03 06:41:09;;;;;;;13.20;5.25;;;;;;;10.28;95.58;95311.44;5068133;28;20037;-76
2022/05/03 06:43:35;;;;;;;9.57;5.68;;;;;;;10.28;96.41;95306.16;5067628;28;20033;-77
2022/05/03 06:46:00;;;;;;;10.07;5.22;;;;;;;10.42;93.00;95306.38;5055271;28;20463;-76
2022/05/03 06:48:26;;;;;;;9.30;4.55;;;;;;;10.77;88.63;95313.22;5056015;28;20041;-76
2022/05/03 06:50:52;;;;;;;9.52;4.53;;;;;;;10.78;88.66;95309.53;5056906;28;20041;-76
2022/05/03 06:53:17;;;;;;;9.07;4.90;;;;;;;10.74;91.63;95313.78;5064836;28;20036;-77
2022/05/03 06:55:43;;;;;;;10.70;4.72;;;;;;;10.87;89.87;95313.16;5068695;28;20372;-76
2022/05/03 06:58:08;;;;;;;9.05;4.63;;;;;;;10.90;88.46;95320.53;5070058;28;20049;-73
2022/05/03 07:00:34;;;;;;;8.43;4.80;;;;;;;10.89;87.95;95316.31;5056769;28;20542;-76
2022/05/03 07:02:59;;;;;;;12.07;5.70;;;;;;;11.14;88.19;95314.53;5060879;28;20547;-76
2022/05/03 07:05:25;;;;;;;10.55;4.57;;;;;;;11.18;86.89;95312.91;5066326;28;20078;-75
2022/05/03 07:07:50;;;;;;;16.70;4.93;;;;;;;11.23;85.91;95319.97;5068052;28;20608;-74
2022/05/03 07:10:16;;;;;;;10.18;5.60;;;;;;;11.25;86.39;95315.22;5060941;28;20088;-73
2022/05/03 07:12:42;;;;;;;7.95;4.60;;;;;;;11.30;85.96;95314.38;5063765;28;20098;-74
2022/05/03 07:15:08;;;;;;;11.43;5.03;;;;;;;11.29;86.05;95318.84;5063025;28;20045;-74
2022/05/03 07:23:03;;;;;;;12.55;5.50;;;;;;;11.41;85.99;95326.41;5068192;28;20518;-73
2022/05/03 07:25:30;;;;;;;10.63;5.00;;;;;;;11.52;82.74;95316.53;5064581;28;20056;-75
2022/05/03 07:27:55;;;;;;;9.98;5.68;;;;;;;11.59;80.91;95323.06;5059436;28;20391;-75
2022/05/03 07:30:21;;;;;;;13.50;6.75;;;;;;;11.67;81.70;95313.72;5069399;28;20048;-74
2022/05/03 07:32:47;;;;;;;10.93;5.63;;;;;;;11.70;81.89;95320.31;5056324;28;20040;-74
2022/05/03 07:35:13;;;;;;;8.73;5.43;;;;;;;11.77;81.66;95318.13;5051542;28;20045;-74
2022/05/03 07:37:40;;;;;;;9.75;5.78;;;;;;;11.88;78.39;95324.84;5059612;28;20111;-75
2022/05/03 07:40:07;;;;;;;10.68;5.63;;;;;;;11.89;80.98;95315.84;5053537;28;20422;-74
2022/05/03 07:42:33;;;;;;;11.15;5.82;;;;;;;11.96;80.50;95321.59;5084378;28;20042;-77
2022/05/03 07:44:59;;;;;;;9.15;5.45;;;;;;;12.09;79.69;95320.13;5086725;28;20490;-78
2022/05/03 07:47:25;;;;;;;10.32;6.45;;;;;;;12.20;82.04;95323.41;5068599;28;20091;-75
2022/05/03 07:49:50;;;;;;;11.00;5.00;;;;;;;12.37;79.89;95324.78;5060620;28;20043;-75
2022/05/03 07:52:16;;;;;;;8.32;4.97;;;;;;;12.68;77.41;95324.34;5061337;28;20041;-73
2022/05/03 07:54:43;;;;;;;10.68;5.53;;;;;;;12.63;77.55;95333.91;5055534;28;20139;-73
2022/05/03 07:57:12;;;;;;;11.43;4.90;;;;;;;12.67;78.16;95328.88;5059758;28;20041;-74
2022/05/03 07:59:39;;;;;;;9.55;5.35;;;;;;;12.77;77.39;95330.53;5068936;28;20043;-73
2022/05/03 08:02:04;;;;;;;10.63;5.25;;;;;;;12.77;75.87;95325.25;5065780;28;20045;-73
2022/05/03 08:04:30;;;;;;;9.65;5.22;;;;;;;12.77;76.00;95328.72;5058498;28;20527;-73
2022/05/03 08:06:55;;;;;;;9.68;6.07;;;;;;;12.80;76.40;95332.59;5058979;28;20041;-73
2022/05/03 08:09:21;;;;;;;9.60;5.20;;;;;;;12.98;77.14;95323.88;5069845;28;20048;-73
2022/05/03 08:11:47;;;;;;;10.80;5.20;;;;;;;13.01;75.54;95330.44;5070151;28;20036;-74
2022/05/03 08:14:12;;;;;;;10.95;4.85;;;;;;;12.97;74.40;95332.88;5058588;28;20048;-74
2022/05/03 08:16:38;;;;;;;7.88;4.95;;;;;;;13.19;74.54;95336.78;5060721;28;20045;-76
2022/05/03 08:19:05;;;;;;;8.55;4.78;;;;;;;12.97;74.04;95327.59;5065483;28;20119;-74
2022/05/03 08:21:32;;;;;;;10.65;4.75;;;;;;;12.98;73.47;95331.03;5065942;28;20117;-73
2022/05/03 08:24:02;;;;;;;12.73;4.78;;;;;;;13.12;74.93;95333.72;5057226;28;20106;-73
2022/05/03 08:26:30;;;;;;;8.75;5.05;;;;;;;13.11;77.20;95334.78;5068812;28;20121;-73
2022/05/03 08:28:56;;;;;;;10.48;5.50;;;;;;;13.12;75.24;95328.44;5059774;28;20532;-73
2022/05/03 08:31:22;;;;;;;8.15;5.05;;;;;;;13.30;73.77;95338.16;5067443;28;20045;-73
2022/05/03 08:33:47;;;;;;;7.30;4.80;;;;;;;13.40;73.82;95339.09;5048561;28;20106;-73
2022/05/03 08:36:13;;;;;;;7.93;4.63;;;;;;;13.48;71.81;95336.56;5049947;28;20049;-73
2022/05/03 08:44:09;;;;;;;11.23;5.45;;;;;;;13.67;71.77;95344.41;5061371;28;20048;-73
2022/05/03 08:46:36;;;;;;;9.40;5.30;;;;;;;13.67;71.39;95344.41;5052632;28;20112;-73
2022/05/03 08:49:04;;;;;;;7.63;5.07;;;;;;;13.78;71.61;95344.25;5059509;28;20413;-73
2022/05/03 08:51:31;;;;;;;7.43;4.80;;;;;;;14.01;71.38;95337.94;5063203;28;20038;-73
2022/05/03 08:53:59;;;;;;;8.00;5.50;;;;;;;14.06;68.79;95339.72;5054594;28;20098;-73
2022/05/03 08:56:26;;;;;;;9.50;4.95;;;;;;;14.03;68.45;95335.78;5060270;28;20052;-73
2022/05/03 08:58:52;;;;;;;7.88;4.82;;;;;;;14.00;68.03;95336.38;5063102;28;20498;-73
2022/05/03 09:01:18;;;;;;;9.20;5.25;;;;;;;14.04;67.03;95332.06;5062785;28;20047;-73
2022/05/03 09:03:44;;;;;;;7.78;4.55;;;;;;;14.09;68.13;95333.03;5067413;28;20052;-73
2022/05/03 09:06:10;;;;;;;7.82;4.88;;;;;;;14.02;66.12;95334.25;5066475;28;20041;-73
2022/05/03 09:08:37;;;;;;;9.65;4.68;;;;;;;14.22;67.20;95332.25;5056881;28;20086;-73
2022/05/03 09:11:13;;;;;;;10.25;6.00;;;;;;;14.31;66.22;95338.41;5051336;28;20059;-73
2022/05/03 09:13:39;;;;;;;9.35;5.05;;;;;;;14.45;66.30;95335.75;5068441;28;20100;-73
2022/05/03 09:16:13;;;;;;;14.20;6.50;;;;;;;14.57;65.52;95335.22;5049422;28;20049;-73
2022/05/03 09:18:40;;;;;;;9.35;6.10;;;;;;;14.56;65.94;95336.28;5068206;28;20541;-73
2022/05/03 09:24:12;;;;;;;9.15;5.70;;;;;;;14.58;62.90;95334.13;5062495;28;20052;-73
2022/05/03 09:26:39;;;;;;;8.43;5.43;;;;;;;14.61;65.31;95330.91;5067664;28;20040;-73
2022/05/03 09:29:12;;;;;;;12.55;5.82;;;;;;;14.54;63.88;95333.19;5068622;28;20142;-73
2022/05/03 09:31:43;;;;;;;11.18;6.10;;;;;;;14.97;64.03;95330.09;5066483;28;20095;-73
2022/05/03 09:34:26;;;;;;;12.32;6.40;;;;;;;15.23;64.64;95337.44;5068696;28;20045;-73
2022/05/03 09:36:52;;;;;;;9.88;5.88;;;;;;;15.32;61.71;95329.53;5065679;28;20483;-73
2022/05/03 09:39:24;;;;;;;10.88;5.78;;;;;;;15.32;61.66;95327.66;5056425;28;20041;-73
2022/05/03 09:42:13;;;;;;;15.38;6.95;;;;;;;15.14;62.26;95324.13;5064581;28;20043;-73
2022/05/03 09:44:50;;;;;;;12.38;6.45;;;;;;;15.10;63.26;95319.72;5062002;28;20048;-73
2022/05/03 09:47:17;;;;;;;10.35;5.80;;;;;;;15.25;62.02;95324.66;5079805;28;20044;-74
2022/05/03 09:49:43;;;;;;;9.95;5.55;;;;;;;15.41;60.74;95317.09;5080296;28;20829;-75
2022/05/03 09:52:36;;;;;;;18.13;7.13;;;;;;;15.28;63.83;95321.41;5067423;28;20040;-76
2022/05/03 09:55:11;;;;;;;16.05;7.60;;;;;;;15.15;65.59;95324.91;5066130;28;20048;-75
2022/05/03 09:57:41;;;;;;;18.27;7.88;;;;;;;15.27;66.62;95317.19;5060860;28;20115;-75
2022/05/03 10:00:12;;;;;;;13.18;7.35;;;;;;;15.97;63.54;95317.50;5068754;28;20044;-75
2022/05/03 10:02:40;;;;;;;13.82;7.70;;;;;;;15.75;63.43;95316.47;5068614;28;20279;-76
2022/05/03 10:05:06;;;;;;;12.15;7.22;;;;;;;15.51;62.79;95322.13;5064626;28;20037;-76
2022/05/03 10:07:34;;;;;;;13.68;6.93;;;;;;;15.57;63.38;95309.53;5057722;28;20111;-75
2022/05/03 10:10:03;;;;;;;12.20;7.35;;;;;;;15.54;62.95;95310.13;5063924;28;20541;-73
2022/05/03 10:12:29;;;;;;;16.00;7.32;;;;;;;15.69;61.71;95316.94;5063501;28;20049;-73
2022/05/03 10:14:54;;;;;;;16.95;7.22;;;;;;;15.85;63.31;95309.38;5060669;28;20045;-73
2022/05/03 10:20:42;;;;;;;12.73;6.88;;;;;;;15.73;60.97;95313.34;5065832;28;20049;-73
2022/05/03 10:23:30;;;;;;;12.48;7.50;;;;;;;15.80;61.04;95314.78;5063872;28;20048;-74
2022/05/03 10:25:57;;;;;;;10.82;6.63;;;;;;;15.92;61.81;95315.00;5068423;28;20041;-73
2022/05/03 10:28:23;;;;;;;13.38;7.15;;;;;;;16.00;61.46;95306.25;5055303;28;20044;-74
2022/05/03 10:31:04;;;;;;;12.40;7.30;;;;;;;15.97;61.84;95301.56;5067058;28;20146;-74
2022/05/03 10:33:30;;;;;;;15.82;7.22;;;;;;;16.21;59.99;95300.38;5068529;28;20041;-73
2022/05/03 10:35:57;;;;;;;14.32;7.40;;;;;;;17.12;59.04;95296.03;5067868;28;20032;-73
2022/05/03 10:38:43;;;;;;;16.30;6.85;;;;;;;17.63;54.80;95298.06;5067546;28;20036;-73
2022/05/03 10:41:10;;;;;;;15.13;6.43;;;;;;;18.01;55.48;95291.94;5066800;28;20563;-74
2022/05/03 10:43:38;;;;;;;16.88;6.90;;;;;;;17.52;55.96;95296.84;5062559;28;20043;-74
2022/05/03 10:46:33;;;;;;;9.98;6.10;;;;;;;17.69;56.64;95296.78;5066206;28;20049;-74
2022/05/03 10:49:15;;;;;;;13.20;7.30;;;;;;;17.52;55.74;95299.50;5065044;28;20052;-73
2022/05/03 10:51:42;;;;;;;10.32;6.68;;;;;;;17.01;56.13;95289.47;5068291;28;20041;-73
2022/05/03 10:54:07;;;;;;;11.45;6.47;;;;;;;16.55;56.42;95293.53;5071243;28;20044;-73
2022/05/03 10:56:33;;;;;;;12.60;6.43;;;;;;;16.97;55.67;95294.63;5068206;28;20413;-74
2022/05/03 10:59:15;;;;;;;18.73;6.78;;;;;;;17.06;56.15;95297.28;5062053;28;20409;-76
2022/05/03 11:01:53;;;;;;;12.18;6.95;;;;;;;17.13;55.80;95292.25;5079512;28;20040;-76
2022/05/03 11:04:19;;;;;;;14.35;7.07;;;;;;;17.33;54.97;95284.69;5068896;28;20467;-73
2022/05/03 11:06:47;;;;;;;13.93;6.63;;;;;;;16.80;57.70;95284.00;5064260;28;20083;-76
2022/05/03 11:09:15;;;;;;;14.90;7.10;;;;;;;16.61;58.59;95286.97;5062457;28;20048;-76
2022/05/03 11:14:24;;;;;;;9.98;6.63;;;;;;;16.58;58.15;95277.00;5066621;28;20041;-75
2022/05/03 11:17:08;;;;;;;10.65;6.72;;;;;;;16.68;60.39;95265.25;5064853;28;20032;-74
2022/05/03 11:19:34;;;;;;;16.92;7.30;;;;;;;17.04;59.49;95272.09;5063186;28;20087;-75
2022/05/03 11:22:00;;;;;;;11.88;7.45;;;;;;;17.82;57.99;95269.16;5068606;28;20072;-78
2022/05/03 11:24:29;;;;;;;10.65;6.90;;;;;;;18.81;52.84;95256.41;5075266;28;20048;-76
2022/05/03 11:26:59;;;;;;;9.90;6.72;;;;;;;20.01;52.67;95263.72;5054455;28;20052;-73
2022/05/03 11:29:30;;;;;;;18.65;7.07;;;;;;;20.40;49.16;95264.09;5065571;28;20566;-73
2022/05/03 11:31:58;;;;;;;11.52;6.70;;;;;;;20.46;48.45;95246.72;5070760;28;20048;-73
2022/05/03 11:34:24;;;;;;;12.75;7.70;;;;;;;20.07;47.48;95251.72;5071346;28;20053;-73
2022/05/03 11:36:50;;;;;;;14.45;7.80;;;;;;;20.05;47.55;95253.94;5067399;28;20608;-73
2022/05/03 11:39:17;;;;;;;10.88;6.78;;;;;;;21.90;44.75;95245.03;5070294;28;20045;-75
2022/05/03 11:41:43;;;;;;;11.07;6.78;;;;;;;22.69;43.01;95235.19;5058330;28;20040;-74
2022/05/03 11:44:09;;;;;;;9.23;6.38;;;;;;;21.80;45.33;95240.19;5061748;28;20406;-74
2022/05/03 11:46:37;;;;;;;11.48;6.90;;;;;;;21.44;44.35;95233.97;5069265;28;20037;-75
2022/05/03 11:49:05;;;;;;;9.63;6.18;;;;;;;21.24;45.16;95239.22;5066284;28;20041;-72
2022/05/03 11:57:12;;;;;;;11.32;7.40;;;;;;;19.55;46.86;95235.25;5066055;28;20059;-75
2022/05/03 11:59:39;;;;;;;14.93;8.02;;;;;;;19.43;47.60;95240.56;5068034;28;20040;-74
2022/05/03 12:02:32;;;;;;;16.33;10.68;;;;;;;19.99;50.25;95223.22;5063110;28;20037;-73
2022/05/03 12:05:02;;;;;;;15.05;8.02;;;;;;;19.69;50.22;95236.78;5066549;28;20072;-72
2022/05/03 12:07:28;;;;;;;18.52;10.55;;;;;;;20.83;48.75;95233.25;5066615;28;20086;-73
2022/05/03 12:09:55;;;;;;;15.98;9.80;;;;;;;20.10;49.81;95218.97;5066503;28;20049;-73
2022/05/03 12:12:43;;;;;;;19.27;10.82;;;;;;;19.88;50.91;95229.03;5066115;28;20044;-73
2022/05/03 12:15:14;;;;;;;15.63;10.30;;;;;;;19.24;52.27;95221.63;5081707;28;20047;-73
2022/05/03 12:17:58;;;;;;;17.38;10.82;;;;;;;18.64;53.74;95221.94;5068379;28;20056;-72